Time;durP1;ratioP1;P1;durP2;ratioP2;P2;SDS_P1;SDS_P2;PMS_P1;PMS_P2;Temp;Humidity;BMP_temperature;BMP_pressure;BME280_temperature;BME280_humidity;BME280_pressure;Samples;Min_cycle;Max_cycle;Signal;HPM_P1;HPM_P2
2023/11/05 00:01:39;;;;;;;15.13;4.47;;;;;;;15.30;100.00;97958.35;1686125;85;21328;-68
2023/11/05 00:04:08;;;;;;;11.97;4.97;;;;;;;15.30;100.00;97953.39;1686135;85;21055;-69
2023/11/05 00:06:37;;;;;;;13.20;4.78;;;;;;;15.28;100.00;97961.13;1686465;85;21101;-69
2023/11/05 00:09:05;;;;;;;14.03;5.47;;;;;;;15.25;100.00;97948.73;1686244;85;21083;-68
2023/11/05 00:11:35;;;;;;;14.70;4.97;;;;;;;15.22;100.00;97949.31;1686155;85;21085;-68
2023/11/05 00:14:04;;;;;;;13.62;4.97;;;;;;;15.22;100.00;97946.55;1686384;85;21053;-69
2023/11/05 00:16:33;;;;;;;18.57;5.58;;;;;;;15.19;100.00;97954.85;1686165;85;21510;-69
2023/11/05 00:19:02;;;;;;;14.33;4.95;;;;;;;15.20;100.00;97939.12;1686281;85;21460;-68
2023/11/05 00:21:31;;;;;;;13.40;4.95;;;;;;;15.19;100.00;97928.64;1686350;85;21087;-68
2023/11/05 00:24:00;;;;;;;10.93;5.20;;;;;;;15.17;100.00;97926.73;1686387;85;21103;-70
2023/11/05 00:26:30;;;;;;;14.53;5.62;;;;;;;15.16;100.00;97908.53;1686396;85;21039;-69
2023/11/05 00:28:59;;;;;;;12.70;5.53;;;;;;;15.13;100.00;97910.49;1685348;85;21479;-68
2023/11/05 00:31:28;;;;;;;15.18;5.58;;;;;;;15.13;100.00;97911.05;1685115;85;21098;-68
2023/11/05 00:33:57;;;;;;;17.35;5.70;;;;;;;15.13;100.00;97904.16;1684906;85;21555;-68
2023/11/05 00:36:26;;;;;;;12.60;5.60;;;;;;;15.10;100.00;97904.73;1684957;85;21071;-68
2023/11/05 00:38:56;;;;;;;14.38;5.78;;;;;;;15.09;100.00;97894.81;1685008;85;21544;-69
2023/11/05 00:41:25;;;;;;;19.17;6.37;;;;;;;15.09;100.00;97901.70;1684893;85;21487;-69
2023/11/05 00:43:54;;;;;;;14.47;6.03;;;;;;;15.07;100.00;97892.90;1685341;85;21154;-69
2023/11/05 00:46:23;;;;;;;14.95;6.17;;;;;;;15.07;100.00;97899.80;1685089;85;21035;-67
2023/11/05 00:48:52;;;;;;;16.67;6.40;;;;;;;15.05;100.00;97888.23;1685216;85;21023;-68
2023/11/05 00:51:22;;;;;;;17.45;6.60;;;;;;;15.03;100.00;97891.27;1685039;85;21094;-68
2023/11/05 00:53:51;;;;;;;17.02;6.35;;;;;;;15.03;100.00;97880.80;1685042;85;21165;-69
2023/11/05 00:56:20;;;;;;;15.48;6.55;;;;;;;15.02;100.00;97879.16;1685231;85;21015;-68
2023/11/05 00:58:50;;;;;;;19.42;6.78;;;;;;;15.01;100.00;97874.19;1684935;85;21055;-69
2023/11/05 01:01:20;;;;;;;13.98;6.50;;;;;;;14.99;100.00;97884.69;1685171;85;21121;-70
2023/11/05 01:03:49;;;;;;;16.07;6.58;;;;;;;15.00;100.00;97874.48;1685259;85;21111;-69
2023/11/05 01:06:18;;;;;;;24.25;7.70;;;;;;;14.98;100.00;97862.36;1685074;85;21043;-67
2023/11/05 01:08:48;;;;;;;16.20;6.28;;;;;;;14.98;100.00;97862.91;1685000;85;21027;-68
2023/11/05 01:11:16;;;;;;;20.45;6.72;;;;;;;14.97;100.00;97858.52;1684999;85;21067;-70
2023/11/05 01:13:45;;;;;;;18.35;6.42;;;;;;;14.96;100.00;97856.31;1684961;85;21490;-69
2023/11/05 01:16:14;;;;;;;14.80;6.58;;;;;;;14.95;100.00;97859.33;1684984;85;21114;-69
2023/11/05 01:18:43;;;;;;;15.63;6.15;;;;;;;14.94;100.00;97863.20;1684969;85;21505;-70
2023/11/05 01:21:12;;;;;;;13.32;5.08;;;;;;;14.91;100.00;97861.28;1684991;85;21091;-71
2023/11/05 01:23:41;;;;;;;10.32;5.12;;;;;;;14.89;100.00;97846.95;1685034;85;21054;-71
2023/11/05 01:26:10;;;;;;;13.28;4.85;;;;;;;14.87;100.00;97846.98;1685059;85;21047;-71
2023/11/05 01:28:40;;;;;;;10.65;4.80;;;;;;;14.84;100.00;97849.76;1685043;85;21608;-71
2023/11/05 01:31:09;;;;;;;13.40;4.97;;;;;;;14.84;100.00;97865.48;1684923;85;21058;-70
2023/11/05 01:33:38;;;;;;;11.33;4.08;;;;;;;14.82;100.00;97863.56;1684803;85;21054;-72
2023/11/05 01:36:09;;;;;;;7.95;4.00;;;;;;;14.81;100.00;97874.32;1684981;85;21482;-72
2023/11/05 01:38:38;;;;;;;5.90;1.82;;;;;;;14.79;100.00;97919.27;1685071;85;21111;-69
2023/11/05 01:41:06;;;;;;;2.60;0.80;;;;;;;14.74;100.00;97958.70;1685197;85;21039;-72
2023/11/05 01:43:35;;;;;;;1.95;0.60;;;;;;;14.32;100.00;97981.20;1685176;85;21074;-71
2023/11/05 01:46:04;;;;;;;0.60;0.30;;;;;;;13.78;100.00;97986.54;1685028;85;21529;-69
2023/11/05 01:48:34;;;;;;;0.57;0.20;;;;;;;13.27;100.00;98013.48;1685338;85;21071;-70
2023/11/05 01:51:08;;;;;;;0.72;0.20;;;;;;;12.86;100.00;98030.39;1685136;85;21043;-71
2023/11/05 01:53:36;;;;;;;1.62;0.20;;;;;;;12.53;100.00;98054.98;1685102;85;21130;-73
2023/11/05 01:56:06;;;;;;;0.95;0.10;;;;;;;12.24;100.00;98050.42;1685074;85;21090;-71
2023/11/05 01:58:36;;;;;;;0.78;0.20;;;;;;;12.02;100.00;98045.08;1659908;85;21102;-71
2023/11/05 02:01:06;;;;;;;0.33;0.20;;;;;;;11.82;100.00;98047.68;1685046;85;21573;-71
2023/11/05 02:03:38;;;;;;;1.37;0.30;;;;;;;11.66;100.00;98017.05;1685141;85;21038;-69
2023/11/05 02:06:08;;;;;;;1.17;0.33;;;;;;;11.57;100.00;98007.11;1685033;85;21079;-69
2023/11/05 02:08:37;;;;;;;2.27;0.90;;;;;;;11.49;100.00;98011.71;1685208;85;21074;-71
2023/11/05 02:11:06;;;;;;;1.12;0.68;;;;;;;11.38;100.00;98022.31;1659860;85;21067;-71
2023/11/05 02:13:51;;;;;;;1.60;0.75;;;;;;;11.28;100.00;98035.93;1685170;85;21130;-71
2023/11/05 02:16:20;;;;;;;2.42;0.40;;;;;;;11.22;100.00;98032.86;1685370;85;21042;-70
2023/11/05 02:18:49;;;;;;;0.40;0.20;;;;;;;11.16;100.00;98054.45;1684983;85;21066;-70
2023/11/05 02:21:24;;;;;;;1.25;0.40;;;;;;;11.10;100.00;98069.47;1685149;85;21066;-71
2023/11/05 02:23:52;;;;;;;0.23;0.23;;;;;;;11.03;100.00;98089.37;1684000;85;21047;-70
2023/11/05 02:26:22;;;;;;;0.20;0.20;;;;;;;10.98;100.00;98101.64;1685025;85;21035;-72
2023/11/05 02:28:51;;;;;;;0.20;0.20;;;;;;;10.94;100.00;98103.78;1685526;85;21111;-70
2023/11/05 02:31:20;;;;;;;0.40;0.33;;;;;;;10.91;100.00;98085.11;1686373;85;21047;-72
2023/11/05 02:33:49;;;;;;;1.85;0.70;;;;;;;10.89;100.00;98070.84;1686461;85;21525;-70
2023/11/05 02:36:19;;;;;;;3.42;1.30;;;;;;;10.91;100.00;98074.98;1686237;85;21086;-71
2023/11/05 02:38:47;;;;;;;3.50;1.40;;;;;;;10.93;100.00;98092.53;1686353;85;21078;-69
2023/11/05 02:41:16;;;;;;;5.55;1.50;;;;;;;10.89;100.00;98100.44;1686446;85;21186;-69
2023/11/05 02:43:45;;;;;;;2.80;1.20;;;;;;;10.87;100.00;98108.09;1686396;85;21090;-70
2023/11/05 02:46:14;;;;;;;3.17;1.10;;;;;;;10.83;100.00;98139.81;1686229;85;21507;-70
2023/11/05 02:48:42;;;;;;;1.02;0.70;;;;;;;10.80;100.00;98156.75;1686220;85;21066;-70
2023/11/05 02:51:11;;;;;;;1.17;0.70;;;;;;;10.77;100.00;98158.63;1686426;85;21519;-70
2023/11/05 02:53:40;;;;;;;1.67;0.70;;;;;;;10.76;100.00;98174.77;1686379;85;21050;-70
2023/11/05 02:56:09;;;;;;;1.60;0.70;;;;;;;10.76;100.00;98189.84;1686296;85;21079;-71
2023/11/05 02:58:38;;;;;;;1.57;0.37;;;;;;;10.75;100.00;98205.45;1686226;85;21117;-71
2023/11/05 03:01:08;;;;;;;0.95;0.60;;;;;;;10.75;100.00;98216.94;1686250;85;21066;-69
2023/11/05 03:03:38;;;;;;;1.62;0.70;;;;;;;10.74;100.00;98224.33;1686160;85;21509;-70
2023/11/05 03:06:08;;;;;;;1.12;0.57;;;;;;;10.77;100.00;98227.10;1686417;85;21106;-70
2023/11/05 03:08:36;;;;;;;0.60;0.60;;;;;;;10.74;100.00;98235.28;1686426;85;21134;-69
2023/11/05 03:11:05;;;;;;;0.70;0.50;;;;;;;10.70;100.00;98233.30;1686459;85;21090;-68
2023/11/05 03:13:34;;;;;;;1.32;0.70;;;;;;;10.69;100.00;98237.12;1686414;85;21082;-70
2023/11/05 03:16:08;;;;;;;1.25;0.98;;;;;;;10.67;100.00;98254.34;1686224;85;21039;-69
2023/11/05 03:18:36;;;;;;;0.85;0.80;;;;;;;10.66;100.00;98259.53;1686436;84;21098;-69
2023/11/05 03:21:06;;;;;;;1.90;1.20;;;;;;;10.65;100.00;98281.98;1686426;85;21102;-69
2023/11/05 03:23:34;;;;;;;2.08;1.30;;;;;;;10.64;100.00;98302.23;1686161;85;21632;-68
2023/11/05 03:26:04;;;;;;;2.65;1.30;;;;;;;10.63;100.00;98320.28;1686218;85;21365;-70
2023/11/05 03:28:33;;;;;;;1.98;1.30;;;;;;;10.64;100.00;98331.52;1686215;83;21125;-70
2023/11/05 03:31:03;;;;;;;6.03;3.15;;;;;;;10.62;100.00;98339.98;1686376;85;21086;-69
2023/11/05 03:33:33;;;;;;;3.85;2.83;;;;;;;10.60;100.00;98351.72;1686328;85;21078;-69
2023/11/05 03:36:02;;;;;;;3.08;1.80;;;;;;;10.60;100.00;98359.11;1686203;85;21498;-70
2023/11/05 03:38:31;;;;;;;3.25;1.30;;;;;;;10.59;100.00;98367.03;1686174;85;21098;-69
2023/11/05 03:41:00;;;;;;;1.45;0.90;;;;;;;10.57;100.00;98373.30;1686363;85;21098;-69
2023/11/05 03:43:30;;;;;;;0.78;0.70;;;;;;;10.53;100.00;98386.66;1686342;85;21102;-69
2023/11/05 03:45:59;;;;;;;1.85;1.40;;;;;;;10.47;100.00;98389.84;1686220;85;21042;-69
2023/11/05 03:48:27;;;;;;;1.40;1.05;;;;;;;10.41;100.00;98385.34;1686438;84;21062;-69
2023/11/05 03:50:56;;;;;;;1.87;1.17;;;;;;;10.38;100.00;98383.06;1686174;85;21046;-69
2023/11/05 03:53:25;;;;;;;1.35;1.20;;;;;;;10.37;100.00;98395.09;1685968;85;21537;-70
2023/11/05 03:55:54;;;;;;;1.92;1.30;;;;;;;10.36;100.00;98410.39;1686354;85;21324;-68
2023/11/05 03:58:24;;;;;;;3.47;1.25;;;;;;;10.36;100.00;98407.66;1686126;85;21490;-69
2023/11/05 04:00:53;;;;;;;1.32;1.10;;;;;;;10.34;100.00;98409.81;1686335;85;21062;-69
2023/11/05 04:03:21;;;;;;;2.42;1.20;;;;;;;10.31;100.00;98420.70;1686155;85;21059;-69
2023/11/05 04:05:55;;;;;;;2.08;0.93;;;;;;;10.27;100.00;98418.16;1686091;84;21090;-68
2023/11/05 04:08:24;;;;;;;1.50;1.07;;;;;;;10.26;100.00;98427.45;1686044;85;21523;-68
2023/11/05 04:10:53;;;;;;;2.47;1.20;;;;;;;10.24;100.00;98415.09;1686391;85;21194;-69
2023/11/05 04:13:22;;;;;;;2.10;1.30;;;;;;;10.24;100.00;98428.23;1686047;85;21539;-69
2023/11/05 04:15:51;;;;;;;1.57;1.20;;;;;;;10.24;100.00;98435.61;1686106;85;21499;-69
2023/11/05 04:18:20;;;;;;;2.30;1.20;;;;;;;10.24;100.00;98442.45;1686378;85;21070;-68
2023/11/05 04:20:49;;;;;;;1.45;1.10;;;;;;;10.23;100.00;98442.99;1686464;84;21063;-68
2023/11/05 04:23:18;;;;;;;1.17;1.05;;;;;;;10.23;100.00;98445.73;1686622;85;21051;-69
2023/11/05 04:25:48;;;;;;;1.00;0.90;;;;;;;10.24;100.00;98461.61;1686402;85;21530;-69
2023/11/05 04:28:17;;;;;;;2.05;1.30;;;;;;;10.23;100.00;98473.09;1686368;85;21055;-70
2023/11/05 04:30:46;;;;;;;2.87;1.20;;;;;;;10.26;100.00;98480.83;1685103;85;21063;-70
2023/11/05 04:33:15;;;;;;;2.87;1.22;;;;;;;10.27;100.00;98479.75;1684980;85;21102;-69
2023/11/05 04:35:43;;;;;;;1.32;1.10;;;;;;;10.28;100.00;98476.47;1685095;85;21046;-70
2023/11/05 04:38:12;;;;;;;1.77;1.22;;;;;;;10.27;100.00;98483.02;1685257;85;21106;-68
2023/11/05 04:40:42;;;;;;;7.65;4.37;;;;;;;10.27;100.00;98507.12;1684946;85;21083;-68
2023/11/05 04:43:11;;;;;;;6.95;4.15;;;;;;;10.29;100.00;98509.08;1685010;85;21043;-71
2023/11/05 04:45:40;;;;;;;4.20;2.52;;;;;;;10.30;100.00;98516.21;1684822;85;21277;-68
2023/11/05 04:48:09;;;;;;;2.75;1.98;;;;;;;10.31;100.00;98521.98;1685150;85;21071;-68
2023/11/05 04:50:38;;;;;;;2.37;1.75;;;;;;;10.33;100.00;98522.57;1684983;85;21090;-69
2023/11/05 04:53:07;;;;;;;2.85;2.15;;;;;;;10.35;100.00;98518.22;1685049;85;21075;-69
2023/11/05 04:55:37;;;;;;;3.83;2.20;;;;;;;10.35;100.00;98521.79;1685156;85;21063;-68
2023/11/05 04:58:06;;;;;;;2.37;1.92;;;;;;;10.37;100.00;98526.48;1685225;85;21142;-68
2023/11/05 05:00:35;;;;;;;2.72;1.55;;;;;;;10.40;100.00;98534.25;1685158;85;21070;-69
2023/11/05 05:03:04;;;;;;;6.03;4.10;;;;;;;10.41;100.00;98541.38;1685263;85;21071;-69
2023/11/05 05:05:33;;;;;;;6.50;4.50;;;;;;;10.41;100.00;98537.81;1685302;85;21123;-69
2023/11/05 05:08:03;;;;;;;2.50;2.20;;;;;;;10.40;100.00;98546.56;1685016;85;21439;-69
2023/11/05 05:10:33;;;;;;;4.87;3.47;;;;;;;10.41;100.00;98552.34;1685206;85;21063;-67
2023/11/05 05:13:02;;;;;;;5.42;4.08;;;;;;;10.44;100.00;98569.65;1685111;85;21083;-69
2023/11/05 05:15:30;;;;;;;2.67;1.80;;;;;;;10.45;100.00;98577.33;1685177;85;21055;-69
2023/11/05 05:18:00;;;;;;;7.90;4.47;;;;;;;10.45;100.00;98587.73;1685156;85;21486;-67
2023/11/05 05:20:29;;;;;;;7.45;5.28;;;;;;;10.47;100.00;98589.70;1685017;85;21046;-70
2023/11/05 05:22:58;;;;;;;2.55;1.95;;;;;;;10.44;100.00;98594.28;1685026;85;21019;-68
2023/11/05 05:25:28;;;;;;;2.90;1.80;;;;;;;10.40;100.00;98597.72;1684962;85;21056;-68
2023/11/05 05:27:57;;;;;;;3.25;1.60;;;;;;;10.36;100.00;98592.42;1685016;85;21055;-68
2023/11/05 05:30:26;;;;;;;1.95;1.40;;;;;;;10.35;100.00;98611.29;1685003;85;21106;-68
2023/11/05 05:32:56;;;;;;;2.30;1.40;;;;;;;10.34;100.00;98621.41;1685235;85;21125;-68
2023/11/05 05:35:26;;;;;;;3.00;1.50;;;;;;;10.34;100.00;98625.52;1685122;85;21087;-68
2023/11/05 05:37:55;;;;;;;1.82;1.50;;;;;;;10.35;100.00;98627.72;1685002;85;21531;-67
2023/11/05 05:40:24;;;;;;;2.52;1.40;;;;;;;10.37;100.00;98624.20;1685037;85;21479;-69
2023/11/05 05:42:52;;;;;;;3.58;1.42;;;;;;;10.36;100.00;98628.02;1685073;85;21515;-68
2023/11/05 05:45:21;;;;;;;1.62;1.10;;;;;;;10.35;100.00;98635.92;1685143;85;21131;-68
2023/11/05 05:47:50;;;;;;;1.85;1.10;;;;;;;10.33;100.00;98633.97;1684999;85;21106;-68
2023/11/05 05:50:19;;;;;;;1.17;0.90;;;;;;;10.32;100.00;98645.45;1685023;85;21066;-68
2023/11/05 05:52:48;;;;;;;2.37;1.02;;;;;;;10.31;100.00;98636.94;1685172;85;21459;-69
2023/11/05 05:55:17;;;;;;;2.65;1.00;;;;;;;10.33;100.00;98646.28;1685101;85;21125;-69
2023/11/05 05:57:46;;;;;;;2.52;1.67;;;;;;;10.34;100.00;98646.05;1685111;85;21094;-68
2023/11/05 06:00:16;;;;;;;1.05;0.95;;;;;;;10.36;100.00;98649.91;1684980;85;21085;-69
2023/11/05 06:02:45;;;;;;;1.30;1.10;;;;;;;10.39;100.00;98664.48;1685186;85;21051;-69
2023/11/05 06:05:14;;;;;;;0.93;0.80;;;;;;;10.39;100.00;98665.86;1684991;85;21501;-69
2023/11/05 06:07:43;;;;;;;2.05;1.00;;;;;;;10.40;100.00;98676.61;1685208;85;21102;-68
2023/11/05 06:10:12;;;;;;;1.32;0.85;;;;;;;10.38;100.00;98675.98;1685046;85;21095;-69
2023/11/05 06:12:42;;;;;;;2.08;1.20;;;;;;;10.38;100.00;98681.45;1685192;85;21086;-69
2023/11/05 06:15:11;;;;;;;3.12;1.20;;;;;;;10.37;100.00;98681.69;1684962;85;21465;-69
2023/11/05 06:17:41;;;;;;;3.17;1.12;;;;;;;10.38;100.00;98687.46;1685050;85;21062;-69
2023/11/05 06:20:12;;;;;;;2.10;1.30;;;;;;;10.41;100.00;98691.95;1685225;85;21038;-68
2023/11/05 06:22:40;;;;;;;1.90;1.20;;;;;;;10.42;100.00;98699.10;1685005;85;21576;-68
2023/11/05 06:25:10;;;;;;;2.55;1.10;;;;;;;10.43;100.00;98713.63;1685003;85;21526;-68
2023/11/05 06:27:41;;;;;;;2.65;1.02;;;;;;;10.43;100.00;98716.36;1684971;85;21031;-68
2023/11/05 06:30:10;;;;;;;2.27;1.30;;;;;;;10.44;100.00;98715.28;1685525;85;21074;-68
2023/11/05 06:32:39;;;;;;;2.55;1.77;;;;;;;10.45;100.00;98723.27;1686222;85;21290;-68
2023/11/05 06:35:08;;;;;;;3.45;1.70;;;;;;;10.46;100.00;98731.78;1686277;85;21081;-67
2023/11/05 06:37:37;;;;;;;5.00;1.80;;;;;;;10.46;100.00;98739.98;1686369;85;21061;-69
2023/11/05 06:40:07;;;;;;;3.37;2.15;;;;;;;10.47;100.00;98743.56;1686161;85;21503;-69
2023/11/05 06:42:36;;;;;;;4.42;1.90;;;;;;;10.50;100.00;98746.36;1686494;85;21059;-70
2023/11/05 06:45:07;;;;;;;15.25;1.80;;;;;;;10.52;100.00;98761.48;1686377;84;21106;-67
2023/11/05 06:47:36;;;;;;;2.72;1.50;;;;;;;10.52;100.00;98763.38;1686427;85;21095;-67
2023/11/05 06:50:06;;;;;;;1.77;1.32;;;;;;;10.53;100.00;98776.00;1686304;85;21098;-69
2023/11/05 06:52:37;;;;;;;3.17;1.25;;;;;;;10.52;100.00;98777.91;1686092;85;21539;-67
2023/11/05 06:55:08;;;;;;;3.52;1.70;;;;;;;10.52;100.00;98779.81;1686081;85;21058;-67
2023/11/05 06:57:37;;;;;;;1.80;1.62;;;;;;;10.53;100.00;98777.38;1685904;85;21070;-68
2023/11/05 07:00:08;;;;;;;3.50;1.55;;;;;;;10.56;100.00;98790.05;1686061;85;21474;-68
2023/11/05 07:02:37;;;;;;;2.47;1.20;;;;;;;10.56;100.00;98795.53;1686355;85;21054;-68
2023/11/05 07:05:07;;;;;;;3.87;1.50;;;;;;;10.57;100.00;98796.37;1686022;85;21138;-68
2023/11/05 07:07:36;;;;;;;4.35;2.40;;;;;;;10.59;100.00;98794.22;1686139;85;21093;-70
2023/11/05 07:10:06;;;;;;;6.60;3.65;;;;;;;10.60;100.00;98806.84;1686093;85;21070;-68
2023/11/05 07:12:35;;;;;;;7.47;3.17;;;;;;;10.63;100.00;98803.63;1686141;85;21063;-68
2023/11/05 07:15:10;;;;;;;3.77;1.90;;;;;;;10.66;100.00;98809.47;1686247;85;21043;-68
2023/11/05 07:17:39;;;;;;;5.00;2.92;;;;;;;10.69;100.00;98811.73;1686293;84;21285;-68
2023/11/05 07:20:12;;;;;;;4.72;3.22;;;;;;;10.72;100.00;98811.27;1686389;85;21055;-69
2023/11/05 07:22:41;;;;;;;4.55;2.83;;;;;;;10.75;100.00;98813.52;1686165;85;21054;-68
2023/11/05 07:25:10;;;;;;;4.58;3.33;;;;;;;10.80;100.00;98810.07;1686208;85;21140;-69
2023/11/05 07:27:40;;;;;;;3.98;2.30;;;;;;;10.90;100.00;98809.48;1686228;85;21292;-69
2023/11/05 07:30:11;;;;;;;5.20;2.35;;;;;;;11.07;100.00;98805.80;1686258;84;21514;-67
2023/11/05 07:32:40;;;;;;;5.90;1.72;;;;;;;11.34;100.00;98798.42;1686152;85;21054;-69
2023/11/05 07:35:09;;;;;;;5.53;2.50;;;;;;;11.79;100.00;98795.84;1686148;85;21078;-68
2023/11/05 07:37:38;;;;;;;7.60;3.15;;;;;;;12.37;100.00;98798.30;1685901;85;21077;-68
2023/11/05 07:40:09;;;;;;;11.85;3.60;;;;;;;12.88;100.00;98789.50;1686078;85;21051;-68
2023/11/05 07:42:40;;;;;;;8.05;3.50;;;;;;;13.31;100.00;98781.09;1686062;85;21087;-70
2023/11/05 07:45:09;;;;;;;9.45;3.10;;;;;;;13.59;97.02;98771.27;1686246;85;21074;-70
2023/11/05 07:47:39;;;;;;;9.70;3.17;;;;;;;13.84;93.58;98774.05;1686143;85;21077;-68
2023/11/05 07:50:11;;;;;;;7.12;2.60;;;;;;;14.15;92.40;98774.64;1686126;85;21109;-69
2023/11/05 07:52:42;;;;;;;8.05;2.45;;;;;;;14.44;89.92;98773.86;1686243;85;21106;-71
2023/11/05 07:55:11;;;;;;;3.95;1.70;;;;;;;14.64;87.42;98776.50;1686299;85;21047;-68
2023/11/05 07:57:41;;;;;;;5.78;2.70;;;;;;;14.76;85.71;98784.87;1686626;85;21087;-70
2023/11/05 08:00:15;;;;;;;7.25;2.75;;;;;;;14.79;84.41;98785.72;1686262;85;21082;-70
2023/11/05 08:02:42;;;;;;;6.60;2.33;;;;;;;14.78;83.80;98790.95;1686660;85;21478;-69
2023/11/05 08:05:12;;;;;;;8.03;2.60;;;;;;;14.81;83.25;98802.83;1686279;85;21082;-70
2023/11/05 08:07:41;;;;;;;7.45;2.83;;;;;;;14.85;82.59;98803.96;1686292;85;21474;-71
2023/11/05 08:10:10;;;;;;;11.22;3.77;;;;;;;14.75;82.04;98798.37;1686421;85;21957;-69
2023/11/05 08:12:40;;;;;;;11.60;4.37;;;;;;;14.55;81.41;98807.86;1686150;85;21530;-69
2023/11/05 08:15:10;;;;;;;12.68;4.15;;;;;;;14.33;82.53;98811.20;1686592;85;21467;-69
2023/11/05 08:17:42;;;;;;;6.28;2.70;;;;;;;14.09;82.38;98813.41;1686341;85;21463;-70
2023/11/05 08:20:14;;;;;;;8.13;2.80;;;;;;;13.84;83.29;98812.59;1686480;85;21074;-69
2023/11/05 08:22:43;;;;;;;6.78;2.72;;;;;;;13.71;84.34;98801.97;1686465;85;21499;-69
2023/11/05 08:25:12;;;;;;;12.65;3.52;;;;;;;13.60;85.03;98812.00;1686382;85;21054;-69
2023/11/05 08:27:41;;;;;;;7.30;3.17;;;;;;;13.48;84.16;98803.87;1686360;85;21510;-69
2023/11/05 08:30:13;;;;;;;9.35;2.95;;;;;;;13.37;84.57;98794.36;1686233;85;21038;-70
2023/11/05 08:32:42;;;;;;;9.15;3.17;;;;;;;13.30;84.98;98791.80;1667054;85;21058;-70
2023/11/05 08:35:11;;;;;;;14.58;3.87;;;;;;;13.26;86.24;98792.02;1686232;85;21054;-69
2023/11/05 08:37:41;;;;;;;11.22;3.62;;;;;;;13.21;86.29;98788.66;1686360;85;21078;-68
2023/11/05 08:40:13;;;;;;;9.30;3.50;;;;;;;13.20;87.24;98788.91;1686479;85;21055;-68
2023/11/05 08:42:47;;;;;;;9.80;3.60;;;;;;;13.21;87.36;98787.28;1686231;85;21051;-72
2023/11/05 08:45:16;;;;;;;9.60;3.50;;;;;;;13.20;87.52;98794.41;1686396;85;21106;-69
2023/11/05 08:47:45;;;;;;;8.25;2.85;;;;;;;13.19;88.39;98795.50;1686322;85;21575;-69
2023/11/05 08:50:14;;;;;;;7.22;2.70;;;;;;;13.19;88.67;98812.00;1686522;85;21035;-69
2023/11/05 08:52:45;;;;;;;5.25;2.30;;;;;;;13.24;89.06;98816.20;1683860;83;21022;-68
2023/11/05 08:55:14;;;;;;;6.50;3.00;;;;;;;13.27;88.44;98811.56;1665889;83;21023;-70
2023/11/05 08:57:43;;;;;;;8.03;2.70;;;;;;;13.28;88.32;98797.55;1675881;85;21546;-68
2023/11/05 09:00:13;;;;;;;6.75;2.22;;;;;;;13.30;87.85;98797.30;1681030;85;21123;-68
2023/11/05 09:02:42;;;;;;;5.28;1.67;;;;;;;13.29;88.01;98803.89;1675314;84;21038;-67
2023/11/05 09:05:12;;;;;;;3.70;1.07;;;;;;;13.33;88.95;98799.55;1672431;86;21031;-69
2023/11/05 09:07:41;;;;;;;2.45;1.05;;;;;;;13.36;87.76;98808.66;1675605;85;21039;-70
2023/11/05 09:10:12;;;;;;;2.15;0.80;;;;;;;13.37;86.50;98811.70;1678870;85;21103;-69
2023/11/05 09:12:40;;;;;;;3.00;0.82;;;;;;;13.36;86.27;98816.08;1672478;86;21202;-69
2023/11/05 09:15:10;;;;;;;2.77;0.95;;;;;;;13.36;85.96;98809.20;1672526;85;21114;-69
2023/11/05 09:17:39;;;;;;;3.70;0.93;;;;;;;13.33;85.90;98810.55;1672667;85;21431;-69
2023/11/05 09:20:10;;;;;;;2.15;0.80;;;;;;;13.33;86.47;98816.05;1672557;86;21003;-70
2023/11/05 09:22:39;;;;;;;2.20;1.00;;;;;;;13.37;86.89;98819.95;1672617;86;21018;-70
2023/11/05 09:25:09;;;;;;;3.10;1.32;;;;;;;13.44;87.11;98821.97;1672531;86;21059;-70
2023/11/05 09:27:39;;;;;;;1.80;1.00;;;;;;;13.50;86.90;98815.99;1676112;85;21518;-70
2023/11/05 09:30:11;;;;;;;2.58;1.22;;;;;;;13.53;86.37;98808.61;1661612;85;21514;-70
2023/11/05 09:32:43;;;;;;;3.15;0.85;;;;;;;13.55;86.77;98808.64;1697334;84;21058;-70
2023/11/05 09:35:12;;;;;;;3.10;0.90;;;;;;;13.58;85.92;98815.00;1698682;84;21094;-71
2023/11/05 09:37:43;;;;;;;6.42;0.90;;;;;;;13.58;85.88;98806.75;1665167;86;21080;-70
2023/11/05 09:40:13;;;;;;;2.52;0.90;;;;;;;13.61;86.40;98797.98;1665083;86;21130;-70
2023/11/05 09:42:58;;;;;;;6.00;1.40;;;;;;;13.62;85.73;98805.69;1664767;86;21145;-71
2023/11/05 09:45:29;;;;;;;3.25;1.40;;;;;;;13.61;86.11;98814.48;1660668;86;21090;-70
2023/11/05 09:47:58;;;;;;;4.35;1.50;;;;;;;13.62;86.91;98814.78;1664982;86;21148;-70
2023/11/05 09:50:27;;;;;;;3.95;1.37;;;;;;;13.64;87.09;98802.97;1665151;86;21523;-69
2023/11/05 09:53:10;;;;;;;2.45;1.37;;;;;;;13.67;86.91;98813.20;1664658;86;21106;-70
2023/11/05 09:55:40;;;;;;;2.67;1.12;;;;;;;13.64;86.51;98817.27;1664673;86;21597;-69
2023/11/05 09:58:10;;;;;;;3.05;1.00;;;;;;;13.64;86.78;98811.22;1665102;86;21046;-70
2023/11/05 10:00:39;;;;;;;1.67;0.90;;;;;;;13.67;85.64;98802.20;1665071;86;21542;-69
2023/11/05 10:03:12;;;;;;;2.52;0.90;;;;;;;13.69;85.85;98795.34;1656903;86;21063;-71
2023/11/05 10:05:42;;;;;;;1.55;0.80;;;;;;;13.71;85.08;98790.42;1684874;84;21136;-70
2023/11/05 10:08:11;;;;;;;4.33;1.90;;;;;;;13.73;84.38;98791.54;1684464;85;21086;-72
2023/11/05 10:10:43;;;;;;;2.12;1.00;;;;;;;13.75;84.31;98792.94;1684601;85;21094;-71
2023/11/05 10:13:12;;;;;;;1.20;0.80;;;;;;;13.76;83.58;98785.52;1684489;84;21042;-70
2023/11/05 10:15:42;;;;;;;1.72;0.78;;;;;;;13.76;82.95;98784.97;1684870;84;21467;-69
2023/11/05 10:18:15;;;;;;;3.12;0.80;;;;;;;13.73;81.87;98776.40;1684458;84;21082;-68
2023/11/05 10:20:50;;;;;;;1.12;0.70;;;;;;;13.74;82.12;98763.75;1684404;84;21450;-70
2023/11/05 10:23:19;;;;;;;2.65;1.00;;;;;;;13.77;81.68;98757.73;1684682;85;21022;-69
2023/11/05 10:25:50;;;;;;;5.53;0.82;;;;;;;13.80;81.87;98753.63;1684546;85;21054;-71
2023/11/05 10:28:23;;;;;;;2.90;0.90;;;;;;;13.83;81.98;98753.11;1684399;85;21042;-69
2023/11/05 10:30:53;;;;;;;3.98;0.80;;;;;;;13.84;82.31;98745.97;1684330;84;21090;-70
2023/11/05 10:33:23;;;;;;;3.52;1.32;;;;;;;13.86;81.64;98758.10;1684319;85;21058;-69
2023/11/05 10:35:52;;;;;;;2.05;0.60;;;;;;;13.87;80.31;98758.39;1684857;84;21077;-69
2023/11/05 10:38:24;;;;;;;2.35;0.80;;;;;;;13.85;79.18;98758.64;1695823;84;21453;-69
2023/11/05 10:40:54;;;;;;;0.98;0.62;;;;;;;13.85;79.19;98756.44;1695797;84;21066;-69
2023/11/05 10:43:26;;;;;;;1.92;1.00;;;;;;;13.86;79.49;98758.94;1696180;84;21070;-69
2023/11/05 10:45:55;;;;;;;3.92;1.00;;;;;;;13.88;80.07;98761.42;1696184;84;21133;-68
2023/11/05 10:48:24;;;;;;;3.17;1.10;;;;;;;13.90;80.18;98755.11;1696619;84;21434;-69
2023/11/05 10:50:53;;;;;;;1.15;0.70;;;;;;;13.94;80.07;98750.75;1696368;84;21038;-69
2023/11/05 10:53:22;;;;;;;2.08;0.75;;;;;;;13.92;78.57;98741.38;1696232;84;21470;-67
2023/11/05 10:55:51;;;;;;;2.22;0.82;;;;;;;13.90;78.06;98743.55;1696331;84;21465;-69
2023/11/05 10:58:21;;;;;;;1.65;1.00;;;;;;;13.91;77.56;98741.63;1696078;84;21070;-70
2023/11/05 11:00:56;;;;;;;3.40;1.30;;;;;;;13.90;77.08;98744.10;1696266;84;21088;-70
2023/11/05 11:03:25;;;;;;;4.28;1.05;;;;;;;13.91;77.44;98741.09;1693324;84;21510;-71
2023/11/05 11:06:02;;;;;;;1.87;0.80;;;;;;;13.92;76.95;98748.26;1696064;84;21055;-69
2023/11/05 11:08:32;;;;;;;1.15;0.53;;;;;;;13.94;76.53;98743.87;1696200;84;21098;-69
2023/11/05 11:11:09;;;;;;;0.82;0.60;;;;;;;13.96;75.20;98741.69;1670789;84;21544;-69
2023/11/05 11:13:39;;;;;;;1.25;0.70;;;;;;;14.01;75.28;98741.73;1638593;86;21055;-70
2023/11/05 11:16:12;;;;;;;2.55;0.62;;;;;;;14.05;75.69;98732.41;1639062;86;21099;-70
2023/11/05 11:18:41;;;;;;;2.95;0.80;;;;;;;14.07;76.33;98734.35;1638583;86;21074;-73
2023/11/05 11:21:10;;;;;;;3.42;1.10;;;;;;;14.07;76.23;98727.47;1665010;86;21463;-69
2023/11/05 11:23:39;;;;;;;1.60;0.90;;;;;;;14.08;76.55;98729.13;1664993;86;21070;-72
2023/11/05 11:26:24;;;;;;;1.52;0.60;;;;;;;14.09;75.83;98720.61;1664867;86;21078;-71
2023/11/05 11:28:57;;;;;;;1.95;0.65;;;;;;;14.08;74.87;98727.20;1664807;86;21055;-70
2023/11/05 11:31:28;;;;;;;1.40;0.70;;;;;;;14.09;74.58;98731.62;1662203;86;21219;-69
2023/11/05 11:33:56;;;;;;;3.00;0.80;;;;;;;14.09;75.71;98726.11;1647968;87;21541;-73
2023/11/05 11:36:26;;;;;;;1.80;0.62;;;;;;;14.13;75.77;98733.30;1648003;86;21059;-72
2023/11/05 11:38:55;;;;;;;1.65;0.70;;;;;;;14.16;75.46;98728.66;1648158;86;21057;-70